sensor_id;sensor_type;location;lat;lon;timestamp;pressure;altitude;pressure_sealevel;temperature;humidity
63715;BME280;49858;48.956;9.076;2023-05-23T00:01:16;98592.22;;;17.77;100.00
63715;BME280;49858;48.956;9.076;2023-05-23T00:03:44;98587.44;;;17.77;100.00
63715;BME280;49858;48.956;9.076;2023-05-23T00:06:13;98588.63;;;17.83;100.00
63715;BME280;49858;48.956;9.076;2023-05-23T00:08:41;98576.44;;;18.15;100.00
63715;BME280;49858;48.956;9.076;2023-05-23T00:11:10;98578.00;;;18.20;100.00
63715;BME280;49858;48.956;9.076;2023-05-23T00:13:38;98591.84;;;17.68;100.00
63715;BME280;49858;48.956;9.076;2023-05-23T00:16:07;98587.44;;;17.77;100.00
63715;BME280;49858;48.956;9.076;2023-05-23T00:18:36;98584.31;;;18.24;100.00
63715;BME280;49858;48.956;9.076;2023-05-23T00:21:04;98581.22;;;18.14;100.00
63715;BME280;49858;48.956;9.076;2023-05-23T00:23:31;98582.53;;;17.99;100.00
63715;BME280;49858;48.956;9.076;2023-05-23T00:26:02;98578.09;;;18.05;100.00
63715;BME280;49858;48.956;9.076;2023-05-23T00:28:31;98587.13;;;17.65;100.00
63715;BME280;49858;48.956;9.076;2023-05-23T00:30:59;98589.56;;;17.52;100.00
63715;BME280;49858;48.956;9.076;2023-05-23T00:33:28;98597.97;;;17.41;100.00
63715;BME280;49858;48.956;9.076;2023-05-23T00:35:58;98598.91;;;17.90;100.00
63715;BME280;49858;48.956;9.076;2023-05-23T00:38:26;98602.31;;;17.46;100.00
63715;BME280;49858;48.956;9.076;2023-05-23T00:40:55;98610.25;;;17.44;100.00
63715;BME280;49858;48.956;9.076;2023-05-23T00:43:23;98613.50;;;17.28;100.00
63715;BME280;49858;48.956;9.076;2023-05-23T00:45:52;98617.06;;;17.32;100.00
63715;BME280;49858;48.956;9.076;2023-05-23T00:48:20;98608.78;;;17.18;100.00
63715;BME280;49858;48.956;9.076;2023-05-23T00:50:49;98622.22;;;17.33;100.00
63715;BME280;49858;48.956;9.076;2023-05-23T00:53:17;98607.41;;;17.54;100.00
63715;BME280;49858;48.956;9.076;2023-05-23T00:55:45;98622.09;;;17.58;100.00
63715;BME280;49858;48.956;9.076;2023-05-23T00:58:13;98613.38;;;17.53;100.00
63715;BME280;49858;48.956;9.076;2023-05-23T01:00:43;98616.72;;;17.23;100.00
63715;BME280;49858;48.956;9.076;2023-05-23T01:03:13;98614.34;;;17.18;100.00
63715;BME280;49858;48.956;9.076;2023-05-23T01:05:44;98614.31;;;17.21;100.00
63715;BME280;49858;48.956;9.076;2023-05-23T01:08:12;98626.69;;;17.02;100.00
63715;BME280;49858;48.956;9.076;2023-05-23T01:10:41;98628.63;;;17.16;100.00
63715;BME280;49858;48.956;9.076;2023-05-23T01:13:16;98631.72;;;17.43;100.00
63715;BME280;49858;48.956;9.076;2023-05-23T01:15:50;98633.25;;;17.51;100.00
63715;BME280;49858;48.956;9.076;2023-05-23T01:18:30;98624.84;;;17.69;100.00
63715;BME280;49858;48.956;9.076;2023-05-23T01:21:04;98622.91;;;17.55;100.00
63715;BME280;49858;48.956;9.076;2023-05-23T01:24:02;98619.09;;;18.01;100.00
63715;BME280;49858;48.956;9.076;2023-05-23T01:26:43;98618.03;;;17.77;100.00
63715;BME280;49858;48.956;9.076;2023-05-23T01:29:23;98617.06;;;18.05;100.00
63715;BME280;49858;48.956;9.076;2023-05-23T01:31:52;98617.59;;;17.86;100.00
63715;BME280;49858;48.956;9.076;2023-05-23T01:34:21;98613.91;;;18.03;100.00
63715;BME280;49858;48.956;9.076;2023-05-23T01:36:49;98615.03;;;18.17;100.00
63715;BME280;49858;48.956;9.076;2023-05-23T01:39:20;98622.25;;;18.07;100.00
63715;BME280;49858;48.956;9.076;2023-05-23T01:41:48;98614.50;;;17.73;100.00
63715;BME280;49858;48.956;9.076;2023-05-23T01:44:18;98612.09;;;17.72;100.00
63715;BME280;49858;48.956;9.076;2023-05-23T01:46:47;98616.09;;;17.74;100.00
63715;BME280;49858;48.956;9.076;2023-05-23T01:49:16;98610.50;;;17.78;100.00
63715;BME280;49858;48.956;9.076;2023-05-23T01:51:45;98610.81;;;17.91;100.00
63715;BME280;49858;48.956;9.076;2023-05-23T01:54:14;98609.66;;;17.88;100.00
63715;BME280;49858;48.956;9.076;2023-05-23T01:56:46;98606.59;;;17.57;100.00
63715;BME280;49858;48.956;9.076;2023-05-23T01:59:15;98606.97;;;17.67;100.00
63715;BME280;49858;48.956;9.076;2023-05-23T02:01:44;98613.84;;;18.10;100.00
63715;BME280;49858;48.956;9.076;2023-05-23T02:04:12;98618.47;;;17.69;100.00
63715;BME280;49858;48.956;9.076;2023-05-23T02:06:41;98615.00;;;17.50;100.00
63715;BME280;49858;48.956;9.076;2023-05-23T02:09:12;98615.03;;;17.36;100.00
63715;BME280;49858;48.956;9.076;2023-05-23T02:11:39;98625.34;;;17.43;100.00
63715;BME280;49858;48.956;9.076;2023-05-23T02:14:08;98614.19;;;17.53;100.00
63715;BME280;49858;48.956;9.076;2023-05-23T02:16:36;98626.97;;;17.36;100.00
63715;BME280;49858;48.956;9.076;2023-05-23T02:19:05;98623.44;;;17.29;100.00
63715;BME280;49858;48.956;9.076;2023-05-23T02:21:33;98630.97;;;17.28;100.00
63715;BME280;49858;48.956;9.076;2023-05-23T02:24:02;98630.56;;;17.26;100.00
63715;BME280;49858;48.956;9.076;2023-05-23T02:26:30;98634.13;;;17.41;100.00
63715;BME280;49858;48.956;9.076;2023-05-23T02:28:58;98636.06;;;17.41;100.00
63715;BME280;49858;48.956;9.076;2023-05-23T02:31:26;98639.25;;;17.46;100.00
63715;BME280;49858;48.956;9.076;2023-05-23T02:33:54;98627.81;;;17.23;100.00
63715;BME280;49858;48.956;9.076;2023-05-23T02:36:23;98632.50;;;17.40;100.00
63715;BME280;49858;48.956;9.076;2023-05-23T02:38:52;98635.75;;;17.24;100.00
63715;BME280;49858;48.956;9.076;2023-05-23T02:41:20;98635.69;;;17.42;100.00
63715;BME280;49858;48.956;9.076;2023-05-23T02:43:48;98634.47;;;17.50;100.00
63715;BME280;49858;48.956;9.076;2023-05-23T02:46:16;98643.53;;;17.61;100.00
63715;BME280;49858;48.956;9.076;2023-05-23T02:48:44;98646.69;;;17.67;100.00
63715;BME280;49858;48.956;9.076;2023-05-23T02:51:12;98651.47;;;17.67;100.00
63715;BME280;49858;48.956;9.076;2023-05-23T02:53:41;98639.91;;;17.79;100.00
63715;BME280;49858;48.956;9.076;2023-05-23T02:56:09;98637.88;;;17.86;100.00
63715;BME280;49858;48.956;9.076;2023-05-23T02:58:39;98648.63;;;17.81;100.00
63715;BME280;49858;48.956;9.076;2023-05-23T03:01:06;98640.53;;;18.04;100.00
63715;BME280;49858;48.956;9.076;2023-05-23T03:03:35;98637.53;;;18.36;100.00
63715;BME280;49858;48.956;9.076;2023-05-23T03:06:03;98638.75;;;17.69;100.00
63715;BME280;49858;48.956;9.076;2023-05-23T03:08:31;98650.34;;;17.50;100.00
63715;BME280;49858;48.956;9.076;2023-05-23T03:11:01;98650.31;;;17.57;100.00
63715;BME280;49858;48.956;9.076;2023-05-23T03:13:29;98653.09;;;17.60;100.00
63715;BME280;49858;48.956;9.076;2023-05-23T03:15:57;98655.19;;;18.16;100.00
63715;BME280;49858;48.956;9.076;2023-05-23T03:18:25;98651.09;;;17.57;100.00
63715;BME280;49858;48.956;9.076;2023-05-23T03:20:54;98661.47;;;17.50;100.00
63715;BME280;49858;48.956;9.076;2023-05-23T03:23:22;98658.22;;;17.69;100.00
63715;BME280;49858;48.956;9.076;2023-05-23T03:25:50;98657.56;;;17.33;100.00
63715;BME280;49858;48.956;9.076;2023-05-23T03:28:21;98659.19;;;17.27;100.00
63715;BME280;49858;48.956;9.076;2023-05-23T03:30:50;98660.19;;;17.72;100.00
63715;BME280;49858;48.956;9.076;2023-05-23T03:33:18;98656.75;;;17.36;100.00
63715;BME280;49858;48.956;9.076;2023-05-23T03:35:46;98657.50;;;17.47;100.00
63715;BME280;49858;48.956;9.076;2023-05-23T03:38:14;98661.56;;;17.28;100.00
63715;BME280;49858;48.956;9.076;2023-05-23T03:40:41;98651.59;;;17.42;100.00
63715;BME280;49858;48.956;9.076;2023-05-23T03:43:09;98659.94;;;17.38;100.00
63715;BME280;49858;48.956;9.076;2023-05-23T03:45:41;98658.75;;;17.35;100.00
63715;BME280;49858;48.956;9.076;2023-05-23T03:48:12;98665.13;;;17.25;100.00
63715;BME280;49858;48.956;9.076;2023-05-23T03:50:41;98668.63;;;17.51;100.00
63715;BME280;49858;48.956;9.076;2023-05-23T03:53:10;98663.28;;;17.92;100.00
63715;BME280;49858;48.956;9.076;2023-05-23T03:55:37;98668.97;;;17.63;100.00
63715;BME280;49858;48.956;9.076;2023-05-23T03:58:06;98665.88;;;17.44;100.00
63715;BME280;49858;48.956;9.076;2023-05-23T04:00:34;98668.22;;;17.52;100.00
63715;BME280;49858;48.956;9.076;2023-05-23T04:03:05;98665.88;;;17.40;100.00
63715;BME280;49858;48.956;9.076;2023-05-23T04:05:34;98675.66;;;17.84;100.00
63715;BME280;49858;48.956;9.076;2023-05-23T04:08:02;98670.88;;;17.88;100.00
63715;BME280;49858;48.956;9.076;2023-05-23T04:10:30;98670.25;;;17.41;100.00
63715;BME280;49858;48.956;9.076;2023-05-23T04:12:58;98677.66;;;17.80;100.00
63715;BME280;49858;48.956;9.076;2023-05-23T04:15:26;98677.25;;;17.78;100.00
63715;BME280;49858;48.956;9.076;2023-05-23T04:17:57;98666.47;;;17.87;100.00
63715;BME280;49858;48.956;9.076;2023-05-23T04:20:27;98685.22;;;17.72;100.00
63715;BME280;49858;48.956;9.076;2023-05-23T04:22:54;98678.50;;;17.66;100.00
63715;BME280;49858;48.956;9.076;2023-05-23T04:25:24;98669.47;;;18.21;100.00
63715;BME280;49858;48.956;9.076;2023-05-23T04:28:03;98676.56;;;17.56;100.00
63715;BME280;49858;48.956;9.076;2023-05-23T04:30:31;98677.31;;;17.63;100.00
63715;BME280;49858;48.956;9.076;2023-05-23T04:32:59;98683.94;;;17.98;100.00
63715;BME280;49858;48.956;9.076;2023-05-23T04:35:29;98670.94;;;18.40;100.00
63715;BME280;49858;48.956;9.076;2023-05-23T04:37:59;98663.72;;;18.91;100.00
63715;BME280;49858;48.956;9.076;2023-05-23T04:40:28;98663.88;;;19.14;100.00
63715;BME280;49858;48.956;9.076;2023-05-23T04:43:12;98675.94;;;18.59;100.00
63715;BME280;49858;48.956;9.076;2023-05-23T04:45:52;98671.25;;;18.49;100.00
63715;BME280;49858;48.956;9.076;2023-05-23T04:48:27;98672.63;;;18.27;100.00
63715;BME280;49858;48.956;9.076;2023-05-23T04:50:56;98678.09;;;18.37;100.00
63715;BME280;49858;48.956;9.076;2023-05-23T04:53:28;98686.75;;;18.54;100.00
63715;BME280;49858;48.956;9.076;2023-05-23T04:55:57;98688.00;;;18.94;100.00
63715;BME280;49858;48.956;9.076;2023-05-23T04:58:25;98694.72;;;18.48;100.00
63715;BME280;49858;48.956;9.076;2023-05-23T05:00:56;98688.75;;;18.98;100.00
63715;BME280;49858;48.956;9.076;2023-05-23T05:03:24;98702.16;;;18.65;100.00
63715;BME280;49858;48.956;9.076;2023-05-23T05:05:52;98700.63;;;18.57;100.00
63715;BME280;49858;48.956;9.076;2023-05-23T05:08:21;98684.47;;;18.86;100.00
63715;BME280;49858;48.956;9.076;2023-05-23T05:10:49;98689.25;;;18.86;100.00
63715;BME280;49858;48.956;9.076;2023-05-23T05:13:18;98692.91;;;18.27;100.00
63715;BME280;49858;48.956;9.076;2023-05-23T05:15:48;98703.09;;;17.82;100.00
63715;BME280;49858;48.956;9.076;2023-05-23T05:18:18;98695.88;;;17.95;100.00
63715;BME280;49858;48.956;9.076;2023-05-23T05:20:46;98699.00;;;18.04;100.00
63715;BME280;49858;48.956;9.076;2023-05-23T05:23:14;98703.63;;;18.29;100.00
63715;BME280;49858;48.956;9.076;2023-05-23T05:25:44;98698.25;;;18.59;100.00
63715;BME280;49858;48.956;9.076;2023-05-23T05:28:13;98689.69;;;18.84;100.00
63715;BME280;49858;48.956;9.076;2023-05-23T05:30:48;98695.53;;;19.01;100.00
63715;BME280;49858;48.956;9.076;2023-05-23T05:33:21;98693.22;;;19.68;100.00
63715;BME280;49858;48.956;9.076;2023-05-23T05:36:04;98693.63;;;19.66;100.00
63715;BME280;49858;48.956;9.076;2023-05-23T05:38:32;98693.56;;;19.35;100.00
63715;BME280;49858;48.956;9.076;2023-05-23T05:41:02;98694.66;;;19.45;100.00
63715;BME280;49858;48.956;9.076;2023-05-23T05:43:35;98692.66;;;20.10;100.00
63715;BME280;49858;48.956;9.076;2023-05-23T05:46:03;98689.91;;;20.34;100.00
63715;BME280;49858;48.956;9.076;2023-05-23T05:48:31;98692.66;;;20.10;100.00
63715;BME280;49858;48.956;9.076;2023-05-23T05:51:04;98688.47;;;19.95;100.00
63715;BME280;49858;48.956;9.076;2023-05-23T05:53:33;98689.31;;;19.92;100.00
63715;BME280;49858;48.956;9.076;2023-05-23T05:56:02;98690.97;;;20.16;100.00
63715;BME280;49858;48.956;9.076;2023-05-23T05:58:31;98691.06;;;20.63;100.00
63715;BME280;49858;48.956;9.076;2023-05-23T06:01:01;98684.31;;;20.07;100.00
63715;BME280;49858;48.956;9.076;2023-05-23T06:03:31;98695.06;;;20.35;100.00
63715;BME280;49858;48.956;9.076;2023-05-23T06:05:59;98696.38;;;20.27;100.00
63715;BME280;49858;48.956;9.076;2023-05-23T06:08:27;98699.69;;;20.49;100.00
63715;BME280;49858;48.956;9.076;2023-05-23T06:10:55;98697.25;;;19.94;100.00
63715;BME280;49858;48.956;9.076;2023-05-23T06:13:25;98692.91;;;20.74;100.00
63715;BME280;49858;48.956;9.076;2023-05-23T06:15:54;98699.34;;;20.94;100.00
63715;BME280;49858;48.956;9.076;2023-05-23T06:18:22;98705.97;;;19.69;100.00
63715;BME280;49858;48.956;9.076;2023-05-23T06:20:50;98703.91;;;19.73;100.00
63715;BME280;49858;48.956;9.076;2023-05-23T06:23:20;98719.47;;;20.04;100.00
63715;BME280;49858;48.956;9.076;2023-05-23T06:25:48;98713.59;;;19.64;100.00
63715;BME280;49858;48.956;9.076;2023-05-23T06:28:15;98722.66;;;19.34;100.00
63715;BME280;49858;48.956;9.076;2023-05-23T06:30:46;98728.03;;;19.52;100.00
63715;BME280;49858;48.956;9.076;2023-05-23T06:33:15;98726.44;;;19.51;100.00
63715;BME280;49858;48.956;9.076;2023-05-23T06:35:42;98731.50;;;19.29;100.00
63715;BME280;49858;48.956;9.076;2023-05-23T06:38:10;98738.97;;;19.36;100.00
63715;BME280;49858;48.956;9.076;2023-05-23T06:40:38;98743.84;;;19.66;100.00
63715;BME280;49858;48.956;9.076;2023-05-23T06:43:08;98755.25;;;19.00;100.00
63715;BME280;49858;48.956;9.076;2023-05-23T06:45:45;98750.22;;;19.66;100.00
63715;BME280;49858;48.956;9.076;2023-05-23T06:48:14;98751.91;;;19.60;100.00
63715;BME280;49858;48.956;9.076;2023-05-23T06:50:43;98758.91;;;18.93;100.00
63715;BME280;49858;48.956;9.076;2023-05-23T06:53:11;98754.97;;;19.28;100.00
63715;BME280;49858;48.956;9.076;2023-05-23T06:55:40;98771.94;;;19.03;100.00
63715;BME280;49858;48.956;9.076;2023-05-23T06:58:12;98766.25;;;18.73;100.00
63715;BME280;49858;48.956;9.076;2023-05-23T07:00:41;98771.13;;;19.06;100.00
63715;BME280;49858;48.956;9.076;2023-05-23T07:03:16;98774.03;;;18.92;100.00
63715;BME280;49858;48.956;9.076;2023-05-23T07:05:44;98778.13;;;18.77;100.00
63715;BME280;49858;48.956;9.076;2023-05-23T07:08:14;98773.53;;;19.49;100.00
63715;BME280;49858;48.956;9.076;2023-05-23T07:10:53;98782.84;;;19.32;100.00
63715;BME280;49858;48.956;9.076;2023-05-23T07:13:28;98790.75;;;19.37;100.00
63715;BME280;49858;48.956;9.076;2023-05-23T07:15:56;98794.81;;;19.29;100.00
63715;BME280;49858;48.956;9.076;2023-05-23T07:18:25;98784.25;;;19.51;100.00
63715;BME280;49858;48.956;9.076;2023-05-23T07:20:53;98795.06;;;19.00;100.00
63715;BME280;49858;48.956;9.076;2023-05-23T07:23:22;98798.63;;;18.45;100.00
63715;BME280;49858;48.956;9.076;2023-05-23T07:25:51;98790.03;;;18.84;100.00
63715;BME280;49858;48.956;9.076;2023-05-23T07:28:43;98784.56;;;18.70;100.00
63715;BME280;49858;48.956;9.076;2023-05-23T07:31:11;98786.69;;;18.41;100.00
63715;BME280;49858;48.956;9.076;2023-05-23T07:33:42;98777.84;;;19.12;100.00
63715;BME280;49858;48.956;9.076;2023-05-23T07:36:15;98771.03;;;18.61;100.00
63715;BME280;49858;48.956;9.076;2023-05-23T07:38:43;98774.69;;;18.55;100.00
63715;BME280;49858;48.956;9.076;2023-05-23T07:41:11;98781.09;;;19.04;100.00
63715;BME280;49858;48.956;9.076;2023-05-23T07:43:39;98780.00;;;18.94;100.00
63715;BME280;49858;48.956;9.076;2023-05-23T07:46:07;98786.63;;;18.55;100.00
63715;BME280;49858;48.956;9.076;2023-05-23T07:48:36;98791.13;;;18.98;100.00
63715;BME280;49858;48.956;9.076;2023-05-23T07:51:06;98785.28;;;19.30;100.00
63715;BME280;49858;48.956;9.076;2023-05-23T07:53:33;98785.13;;;18.99;100.00
63715;BME280;49858;48.956;9.076;2023-05-23T07:56:08;98786.31;;;19.02;100.00
63715;BME280;49858;48.956;9.076;2023-05-23T07:58:39;98790.88;;;18.78;100.00
63715;BME280;49858;48.956;9.076;2023-05-23T08:01:07;98803.31;;;18.55;100.00
63715;BME280;49858;48.956;9.076;2023-05-23T08:03:53;98802.34;;;18.17;100.00
63715;BME280;49858;48.956;9.076;2023-05-23T08:06:29;98806.59;;;18.39;100.00
63715;BME280;49858;48.956;9.076;2023-05-23T08:09:00;98800.81;;;17.98;100.00
63715;BME280;49858;48.956;9.076;2023-05-23T08:11:31;98802.97;;;18.50;100.00
63715;BME280;49858;48.956;9.076;2023-05-23T08:14:00;98806.19;;;19.04;100.00
63715;BME280;49858;48.956;9.076;2023-05-23T08:16:36;98802.69;;;18.96;100.00
63715;BME280;49858;48.956;9.076;2023-05-23T08:19:12;98803.06;;;18.95;100.00
63715;BME280;49858;48.956;9.076;2023-05-23T08:21:42;98810.03;;;18.65;100.00
63715;BME280;49858;48.956;9.076;2023-05-23T08:24:09;98814.13;;;18.43;100.00
63715;BME280;49858;48.956;9.076;2023-05-23T08:26:41;98812.44;;;19.19;100.00
63715;BME280;49858;48.956;9.076;2023-05-23T08:29:11;98810.03;;;18.69;100.00
63715;BME280;49858;48.956;9.076;2023-05-23T08:31:41;98820.16;;;19.00;100.00
63715;BME280;49858;48.956;9.076;2023-05-23T08:34:10;98825.56;;;19.22;100.00
63715;BME280;49858;48.956;9.076;2023-05-23T08:36:38;98819.78;;;19.43;100.00
63715;BME280;49858;48.956;9.076;2023-05-23T08:39:14;98829.75;;;19.85;100.00
63715;BME280;49858;48.956;9.076;2023-05-23T08:41:52;98832.59;;;19.37;100.00
63715;BME280;49858;48.956;9.076;2023-05-23T08:44:20;98829.16;;;19.22;100.00
63715;BME280;49858;48.956;9.076;2023-05-23T08:46:53;98837.28;;;19.47;100.00
63715;BME280;49858;48.956;9.076;2023-05-23T08:49:42;98836.38;;;19.64;100.00
63715;BME280;49858;48.956;9.076;2023-05-23T08:52:11;98832.69;;;19.71;100.00
63715;BME280;49858;48.956;9.076;2023-05-23T08:54:45;98831.81;;;19.81;100.00
63715;BME280;49858;48.956;9.076;2023-05-23T08:57:16;98833.50;;;18.71;100.00
63715;BME280;49858;48.956;9.076;2023-05-23T08:59:51;98837.53;;;19.19;100.00
63715;BME280;49858;48.956;9.076;2023-05-23T09:02:21;98836.09;;;19.89;100.00
63715;BME280;49858;48.956;9.076;2023-05-23T09:04:53;98835.44;;;20.12;100.00
63715;BME280;49858;48.956;9.076;2023-05-23T09:07:24;98845.97;;;20.32;100.00
63715;BME280;49858;48.956;9.076;2023-05-23T09:09:53;98841.66;;;19.93;100.00
63715;BME280;49858;48.956;9.076;2023-05-23T09:12:22;98848.06;;;19.90;100.00
63715;BME280;49858;48.956;9.076;2023-05-23T09:14:50;98844.41;;;19.55;100.00
63715;BME280;49858;48.956;9.076;2023-05-23T09:17:20;98844.84;;;19.50;100.00
63715;BME280;49858;48.956;9.076;2023-05-23T09:19:51;98851.88;;;19.21;100.00
63715;BME280;49858;48.956;9.076;2023-05-23T09:22:31;98846.56;;;18.81;100.00
63715;BME280;49858;48.956;9.076;2023-05-23T09:25:09;98846.81;;;19.95;100.00
63715;BME280;49858;48.956;9.076;2023-05-23T09:27:39;98855.53;;;19.59;100.00
63715;BME280;49858;48.956;9.076;2023-05-23T09:30:10;98861.22;;;19.48;100.00
63715;BME280;49858;48.956;9.076;2023-05-23T09:32:39;98860.13;;;19.80;100.00
63715;BME280;49858;48.956;9.076;2023-05-23T09:35:08;98857.50;;;20.37;100.00
63715;BME280;49858;48.956;9.076;2023-05-23T09:37:38;98860.06;;;20.21;100.00
63715;BME280;49858;48.956;9.076;2023-05-23T09:40:10;98863.06;;;20.03;100.00
63715;BME280;49858;48.956;9.076;2023-05-23T09:42:44;98856.47;;;20.55;100.00
63715;BME280;49858;48.956;9.076;2023-05-23T09:45:13;98856.81;;;20.60;100.00
63715;BME280;49858;48.956;9.076;2023-05-23T09:47:48;98855.63;;;20.61;100.00
63715;BME280;49858;48.956;9.076;2023-05-23T09:50:17;98849.44;;;20.43;100.00
63715;BME280;49858;48.956;9.076;2023-05-23T09:52:45;98842.59;;;21.05;100.00
63715;BME280;49858;48.956;9.076;2023-05-23T09:55:15;98842.81;;;21.65;100.00
63715;BME280;49858;48.956;9.076;2023-05-23T09:57:43;98849.16;;;21.69;100.00
63715;BME280;49858;48.956;9.076;2023-05-23T10:00:12;98847.72;;;21.81;100.00
63715;BME280;49858;48.956;9.076;2023-05-23T10:02:54;98846.69;;;20.97;100.00
63715;BME280;49858;48.956;9.076;2023-05-23T10:05:30;98850.66;;;21.27;100.00
63715;BME280;49858;48.956;9.076;2023-05-23T10:08:00;98852.75;;;20.65;100.00
63715;BME280;49858;48.956;9.076;2023-05-23T10:10:31;98850.31;;;21.48;100.00
63715;BME280;49858;48.956;9.076;2023-05-23T10:13:02;98850.13;;;22.42;100.00
63715;BME280;49858;48.956;9.076;2023-05-23T10:15:36;98853.56;;;23.22;100.00
63715;BME280;49858;48.956;9.076;2023-05-23T10:18:09;98859.69;;;22.81;100.00
63715;BME280;49858;48.956;9.076;2023-05-23T10:20:39;98856.44;;;22.66;100.00
63715;BME280;49858;48.956;9.076;2023-05-23T10:23:10;98858.63;;;22.38;100.00
63715;BME280;49858;48.956;9.076;2023-05-23T10:25:41;98860.41;;;23.37;100.00
63715;BME280;49858;48.956;9.076;2023-05-23T10:28:10;98866.59;;;22.60;100.00
63715;BME280;49858;48.956;9.076;2023-05-23T10:30:40;98868.66;;;22.56;100.00
63715;BME280;49858;48.956;9.076;2023-05-23T10:33:09;98860.06;;;22.83;100.00
63715;BME280;49858;48.956;9.076;2023-05-23T10:35:43;98859.34;;;22.42;100.00
63715;BME280;49858;48.956;9.076;2023-05-23T10:38:29;98866.69;;;22.16;100.00
63715;BME280;49858;48.956;9.076;2023-05-23T10:41:11;98865.59;;;22.50;100.00
63715;BME280;49858;48.956;9.076;2023-05-23T10:43:44;98870.78;;;22.12;100.00
63715;BME280;49858;48.956;9.076;2023-05-23T10:46:13;98868.22;;;21.00;100.00
63715;BME280;49858;48.956;9.076;2023-05-23T10:48:42;98870.38;;;22.10;100.00
63715;BME280;49858;48.956;9.076;2023-05-23T10:51:12;98864.16;;;21.79;100.00
63715;BME280;49858;48.956;9.076;2023-05-23T10:53:41;98854.31;;;22.34;100.00
63715;BME280;49858;48.956;9.076;2023-05-23T10:56:18;98865.06;;;22.15;100.00
63715;BME280;49858;48.956;9.076;2023-05-23T10:58:51;98864.00;;;20.88;100.00
63715;BME280;49858;48.956;9.076;2023-05-23T11:01:19;98865.69;;;21.09;100.00
63715;BME280;49858;48.956;9.076;2023-05-23T11:03:49;98865.25;;;20.84;100.00
63715;BME280;49858;48.956;9.076;2023-05-23T11:06:31;98858.34;;;21.19;100.00
63715;BME280;49858;48.956;9.076;2023-05-23T11:09:03;98862.97;;;21.33;100.00
63715;BME280;49858;48.956;9.076;2023-05-23T11:12:02;98859.09;;;21.50;100.00
63715;BME280;49858;48.956;9.076;2023-05-23T11:14:33;98873.06;;;20.04;100.00
63715;BME280;49858;48.956;9.076;2023-05-23T11:17:14;98867.25;;;19.84;100.00
63715;BME280;49858;48.956;9.076;2023-05-23T11:19:55;98869.91;;;21.21;100.00
63715;BME280;49858;48.956;9.076;2023-05-23T11:22:26;98862.78;;;21.43;100.00
63715;BME280;49858;48.956;9.076;2023-05-23T11:24:55;98865.75;;;21.56;100.00
63715;BME280;49858;48.956;9.076;2023-05-23T11:27:29;98868.81;;;22.85;100.00
63715;BME280;49858;48.956;9.076;2023-05-23T11:29:58;98872.31;;;22.92;100.00
63715;BME280;49858;48.956;9.076;2023-05-23T11:32:27;98868.75;;;24.03;95.50
63715;BME280;49858;48.956;9.076;2023-05-23T11:34:58;98861.13;;;21.69;100.00
63715;BME280;49858;48.956;9.076;2023-05-23T11:37:27;98864.44;;;24.43;94.17
63715;BME280;49858;48.956;9.076;2023-05-23T11:39:56;98852.59;;;25.16;87.07
63715;BME280;49858;48.956;9.076;2023-05-23T11:42:23;98856.19;;;21.97;100.00
63715;BME280;49858;48.956;9.076;2023-05-23T11:44:53;98853.94;;;21.45;100.00
63715;BME280;49858;48.956;9.076;2023-05-23T11:47:21;98861.16;;;23.87;94.78
63715;BME280;49858;48.956;9.076;2023-05-23T11:49:49;98861.56;;;23.40;96.80
63715;BME280;49858;48.956;9.076;2023-05-23T11:52:17;98855.56;;;23.38;94.77
63715;BME280;49858;48.956;9.076;2023-05-23T11:54:44;98854.38;;;23.71;94.77
63715;BME280;49858;48.956;9.076;2023-05-23T11:57:13;98856.75;;;22.88;95.73
63715;BME280;49858;48.956;9.076;2023-05-23T11:59:41;98856.06;;;23.00;97.74
63715;BME280;49858;48.956;9.076;2023-05-23T12:02:10;98850.72;;;22.33;100.00
63715;BME280;49858;48.956;9.076;2023-05-23T12:04:38;98854.91;;;20.20;100.00
63715;BME280;49858;48.956;9.076;2023-05-23T12:07:06;98854.94;;;20.81;100.00
63715;BME280;49858;48.956;9.076;2023-05-23T12:09:41;98848.28;;;22.35;100.00
63715;BME280;49858;48.956;9.076;2023-05-23T12:12:09;98859.69;;;23.82;99.04
63715;BME280;49858;48.956;9.076;2023-05-23T12:14:39;98842.19;;;24.74;90.53
63715;BME280;49858;48.956;9.076;2023-05-23T12:17:12;98836.66;;;25.60;87.41
63715;BME280;49858;48.956;9.076;2023-05-23T12:19:44;98842.66;;;22.15;100.00
63715;BME280;49858;48.956;9.076;2023-05-23T12:22:12;98836.91;;;24.77;92.98
63715;BME280;49858;48.956;9.076;2023-05-23T12:24:44;98842.53;;;24.22;90.23
63715;BME280;49858;48.956;9.076;2023-05-23T12:27:15;98840.53;;;24.77;86.53
63715;BME280;49858;48.956;9.076;2023-05-23T12:29:49;98837.78;;;21.33;100.00
63715;BME280;49858;48.956;9.076;2023-05-23T12:32:23;98841.56;;;22.09;100.00
63715;BME280;49858;48.956;9.076;2023-05-23T12:34:51;98844.38;;;21.89;100.00
63715;BME280;49858;48.956;9.076;2023-05-23T12:37:20;98840.66;;;22.36;100.00
63715;BME280;49858;48.956;9.076;2023-05-23T12:39:50;98837.38;;;22.57;100.00
63715;BME280;49858;48.956;9.076;2023-05-23T12:42:17;98841.19;;;23.36;97.58
63715;BME280;49858;48.956;9.076;2023-05-23T12:44:50;98840.53;;;23.61;94.84
63715;BME280;49858;48.956;9.076;2023-05-23T12:47:19;98839.63;;;23.02;99.39
63715;BME280;49858;48.956;9.076;2023-05-23T12:49:47;98833.28;;;22.98;100.00
63715;BME280;49858;48.956;9.076;2023-05-23T12:52:15;98836.47;;;22.80;100.00
63715;BME280;49858;48.956;9.076;2023-05-23T12:54:43;98838.94;;;22.22;100.00
63715;BME280;49858;48.956;9.076;2023-05-23T12:57:11;98839.19;;;22.48;100.00
63715;BME280;49858;48.956;9.076;2023-05-23T12:59:38;98835.88;;;22.16;100.00
63715;BME280;49858;48.956;9.076;2023-05-23T13:02:06;98840.38;;;22.66;100.00
63715;BME280;49858;48.956;9.076;2023-05-23T13:04:35;98840.00;;;22.28;100.00
63715;BME280;49858;48.956;9.076;2023-05-23T13:07:03;98839.69;;;22.62;100.00